Impacts TAF Board INFO
FOR SITUATIONAL AWARENESS. NOT TO BE USED FOR FLIGHT PLANNING PURPOSES.
IDs:

KORD - Chicago/O'Hare Intl, IL, US

Issued at 0312 UTC 17 Oct 2017
Updated at 0352 UTC 17 Oct 2017
Potential Impact None Slight Moderate High
Time0251Z 17/04Z 17/05Z 17/06Z 17/07Z 17/08Z 17/09Z 17/10Z 17/11Z 17/12Z 17/13Z 17/14Z 17/15Z 17/16Z>>
Type OBS PRVL PRVL PRVL PRVL PRVL PRVL PRVL PRVL PRVL PRVL PRVL PRVL PRVL
VIS 10 >6 >6 >6 >6 >6 >6 >6 >6 >6 >6 >6 >6 >6
CIG -- -- -- -- -- -- -- -- -- -- -- -- -- --
Cover CLR FEW FEW FEW FEW FEW FEW FEW FEW FEW FEW FEW SKC SKC
FltCat VFR VFR VFR VFR VFR VFR VFR VFR VFR VFR VFR VFR VFR VFR
WX -- -- -- -- -- -- -- -- -- -- -- -- -- --
WDir 200 210 210 210 210 210 210 210 210 210 210 210 230 230
WSpd 6 7 7 7 7 7 7 7 7 7 7 7 15 15
WGst -- -- -- -- -- -- -- -- -- -- -- -- 24 24

Raw TAF
KORD 170312Z 1703/1806 21007KT P6SM FEW250
  FM171500 23015G24KT P6SM SKC
  FM180000 21010KT P6SM SKC


Raw METAR
KORD 170251Z 20006KT 10SM CLR 11/03 A3020 RMK AO2 SLP229 T01060033 58003
KORD 170151Z 21005KT 10SM CLR 12/03 A3021 RMK AO2 SLP232 T01220028
KORD 170051Z 22004KT 10SM CLR 13/03 A3021 RMK AO2 SLP232 T01280028

METAR Board
Radar Display
Forecast Discussion

FOR SITUATIONAL AWARENESS. NOT TO BE USED FOR FLIGHT PLANNING PURPOSES.